Time;durP1;ratioP1;P1;durP2;ratioP2;P2;SDS_P1;SDS_P2;PMS_P1;PMS_P2;Temp;Humidity;BMP_temperature;BMP_pressure;BME280_temperature;BME280_humidity;BME280_pressure;Samples;Min_cycle;Max_cycle;Signal;HPM_P1;HPM_P2
2022/03/25 00:01:31;;;;;;;46.40;19.00;;;4.10;97.30;;;;;;5009455;28;20174;-89
2022/03/25 00:03:57;;;;;;;49.00;16.87;;;4.00;97.30;;;;;;5009536;28;20455;-88
2022/03/25 00:06:23;;;;;;;49.50;18.67;;;4.00;97.30;;;;;;5009411;28;20233;-87
2022/03/25 00:08:49;;;;;;;41.87;18.10;;;3.90;97.30;;;;;;5010048;28;20181;-89
2022/03/25 00:11:14;;;;;;;38.90;15.70;;;3.90;97.30;;;;;;5009789;28;20476;-88
2022/03/25 00:13:40;;;;;;;48.43;18.17;;;3.90;97.30;;;;;;5010792;28;20558;-88
2022/03/25 00:16:07;;;;;;;42.57;15.90;;;3.80;97.30;;;;;;5009403;28;20212;-88
2022/03/25 00:18:33;;;;;;;53.73;19.97;;;3.80;97.30;;;;;;5009269;28;20173;-88
2022/03/25 00:20:59;;;;;;;49.03;17.03;;;3.80;97.30;;;;;;5009313;28;20969;-90
2022/03/25 00:23:25;;;;;;;41.67;17.40;;;3.80;97.30;;;;;;5009323;28;20424;-88
2022/03/25 00:25:51;;;;;;;46.27;17.20;;;3.70;97.30;;;;;;5009224;28;20443;-87
2022/03/25 00:28:16;;;;;;;37.27;16.43;;;3.60;97.30;;;;;;5009349;28;20181;-88
2022/03/25 00:30:43;;;;;;;54.37;18.70;;;3.50;97.30;;;;;;5009040;28;20201;-88
2022/03/25 00:33:09;;;;;;;48.87;18.57;;;3.50;97.30;;;;;;5010004;28;20165;-88
2022/03/25 00:35:34;;;;;;;38.23;17.27;;;3.50;97.30;;;;;;5008876;28;20634;-88
2022/03/25 00:38:00;;;;;;;42.13;17.03;;;3.50;97.30;;;;;;5010012;28;20511;-88
2022/03/25 00:40:26;;;;;;;48.60;19.23;;;3.50;97.30;;;;;;5009652;28;20177;-88
2022/03/25 00:42:52;;;;;;;53.27;17.33;;;3.40;97.30;;;;;;5009277;28;20181;-88
2022/03/25 00:45:17;;;;;;;52.23;19.70;;;3.40;97.30;;;;;;5008998;28;20222;-88
2022/03/25 00:47:43;;;;;;;44.57;18.03;;;3.40;97.30;;;;;;5008589;28;20176;-88
2022/03/25 00:50:09;;;;;;;40.30;18.70;;;3.30;97.30;;;;;;5008560;28;20193;-89
2022/03/25 00:52:35;;;;;;;43.43;18.10;;;3.20;97.30;;;;;;5008694;28;20543;-88
2022/03/25 00:55:01;;;;;;;51.60;20.13;;;3.10;97.30;;;;;;5008280;28;20436;-88
2022/03/25 00:57:27;;;;;;;53.13;19.23;;;3.10;97.30;;;;;;5008203;28;20169;-88
2022/03/25 00:59:53;;;;;;;49.57;18.73;;;3.00;97.30;;;;;;5008672;28;20755;-88
2022/03/25 01:02:18;;;;;;;49.17;19.23;;;3.00;97.30;;;;;;5009084;28;20499;-87
2022/03/25 01:04:44;;;;;;;50.43;20.57;;;3.00;97.30;;;;;;5008186;28;20252;-88
2022/03/25 01:07:09;;;;;;;54.27;19.03;;;3.00;97.30;;;;;;5009077;28;20406;-86
2022/03/25 01:09:35;;;;;;;52.90;20.03;;;3.00;97.30;;;;;;5008671;28;20217;-88
2022/03/25 01:12:01;;;;;;;54.50;21.27;;;3.00;97.30;;;;;;5008489;28;20208;-88
2022/03/25 01:14:27;;;;;;;49.70;18.17;;;3.00;97.30;;;;;;5008502;28;20207;-88
2022/03/25 01:16:52;;;;;;;46.37;17.57;;;2.90;97.30;;;;;;5008638;28;20256;-90
2022/03/25 01:19:20;;;;;;;48.37;19.43;;;2.90;97.30;;;;;;5008085;28;20575;-88
2022/03/25 01:21:46;;;;;;;42.10;18.07;;;2.80;97.30;;;;;;5008244;28;20184;-87
2022/03/25 01:24:12;;;;;;;40.57;17.80;;;2.80;97.30;;;;;;5008205;28;20443;-88
2022/03/25 01:26:39;;;;;;;52.17;18.80;;;2.80;97.30;;;;;;5008805;28;20420;-88
2022/03/25 01:29:07;;;;;;;50.33;20.07;;;2.80;97.30;;;;;;5008570;28;20181;-88
2022/03/25 01:31:33;;;;;;;53.37;19.10;;;2.70;97.30;;;;;;5008215;28;20499;-88
2022/03/25 01:33:59;;;;;;;55.03;18.57;;;2.60;97.30;;;;;;5009328;28;20518;-89
2022/03/25 01:36:24;;;;;;;44.33;18.17;;;2.60;97.30;;;;;;5008305;28;20173;-88
2022/03/25 01:38:50;;;;;;;55.87;18.13;;;2.60;97.30;;;;;;5008331;28;20797;-87
2022/03/25 01:41:17;;;;;;;53.87;20.77;;;2.50;97.30;;;;;;5008237;28;20181;-88
2022/03/25 01:43:50;;;;;;;46.80;18.60;;;2.50;97.30;;;;;;5009462;28;20207;-88
2022/03/25 01:46:16;;;;;;;53.27;18.20;;;2.50;97.30;;;;;;5008394;28;20452;-89
2022/03/25 01:48:41;;;;;;;52.43;20.63;;;2.40;97.30;;;;;;5008422;28;20859;-88
2022/03/25 01:51:07;;;;;;;44.80;18.30;;;2.40;97.30;;;;;;5008131;28;20285;-88
2022/03/25 01:53:33;;;;;;;50.93;18.33;;;2.30;97.30;;;;;;5008110;28;20199;-86
2022/03/25 01:56:00;;;;;;;46.70;19.17;;;2.30;97.30;;;;;;5008073;28;20774;-88
2022/03/25 01:58:29;;;;;;;50.17;18.80;;;2.30;97.30;;;;;;5008140;28;20268;-88
2022/03/25 02:00:55;;;;;;;44.37;18.43;;;2.30;97.30;;;;;;5007493;28;20424;-88
2022/03/25 02:03:21;;;;;;;42.80;16.83;;;2.20;97.30;;;;;;5007836;28;20420;-88
2022/03/25 02:05:48;;;;;;;47.83;18.03;;;2.20;97.30;;;;;;5008855;28;20950;-88
2022/03/25 02:08:15;;;;;;;49.70;19.23;;;2.20;97.30;;;;;;5010783;28;20423;-88
2022/03/25 02:10:41;;;;;;;50.77;19.17;;;2.20;97.30;;;;;;5012622;28;20819;-88
2022/03/25 02:13:11;;;;;;;52.63;18.97;;;2.20;97.30;;;;;;5011885;28;20419;-88
2022/03/25 02:15:42;;;;;;;47.50;18.40;;;2.20;97.30;;;;;;5012316;28;20232;-88
2022/03/25 02:18:12;;;;;;;54.50;20.20;;;2.20;97.30;;;;;;5011612;28;20451;-88
2022/03/25 02:20:38;;;;;;;45.83;18.93;;;2.20;97.30;;;;;;5011735;28;20454;-88
2022/03/25 02:23:05;;;;;;;45.00;17.50;;;2.10;97.30;;;;;;5026810;28;20469;-88
2022/03/25 02:25:31;;;;;;;45.60;19.53;;;2.00;97.30;;;;;;5030911;28;20439;-88
2022/03/25 02:27:59;;;;;;;49.10;16.80;;;1.90;97.30;;;;;;5031273;28;20416;-88
2022/03/25 02:30:28;;;;;;;48.37;19.03;;;1.90;97.30;;;;;;5031009;28;20204;-88
2022/03/25 02:33:00;;;;;;;51.90;18.70;;;1.80;97.30;;;;;;5031257;28;20522;-88
2022/03/25 02:35:40;;;;;;;49.03;19.17;;;1.80;97.30;;;;;;5030899;28;20435;-89
2022/03/25 02:38:06;;;;;;;58.53;20.27;;;1.80;97.30;;;;;;5031370;28;20415;-89
2022/03/25 02:40:32;;;;;;;63.07;17.53;;;1.70;97.30;;;;;;5030814;28;20448;-88
2022/03/25 02:42:58;;;;;;;47.43;16.80;;;1.70;97.30;;;;;;5031995;28;20721;-91
2022/03/25 02:45:24;;;;;;;45.30;16.70;;;1.70;97.30;;;;;;5032583;28;20211;-89
2022/03/25 02:47:49;;;;;;;49.83;18.13;;;1.70;97.30;;;;;;5032180;28;20414;-87
2022/03/25 02:50:15;;;;;;;49.63;17.73;;;1.70;97.30;;;;;;5030950;28;20760;-89
2022/03/25 02:52:41;;;;;;;51.20;18.83;;;1.70;97.30;;;;;;5012471;28;20216;-90
2022/03/25 02:55:08;;;;;;;42.43;16.70;;;1.60;97.30;;;;;;5010774;28;20572;-88
2022/03/25 02:57:34;;;;;;;44.50;18.20;;;1.60;97.30;;;;;;5008699;28;20427;-87
2022/03/25 03:00:00;;;;;;;53.47;19.90;;;1.60;97.30;;;;;;5012441;28;20418;-86
2022/03/25 03:02:26;;;;;;;37.87;16.80;;;1.60;97.30;;;;;;5010703;28;20416;-87
2022/03/25 03:04:51;;;;;;;46.47;17.77;;;1.50;97.30;;;;;;5010796;28;20231;-87
2022/03/25 03:07:17;;;;;;;42.40;17.33;;;1.50;97.30;;;;;;5010833;28;20177;-88
2022/03/25 03:09:43;;;;;;;45.20;16.60;;;1.50;97.30;;;;;;5010505;28;20694;-89
2022/03/25 03:12:12;;;;;;;38.73;16.03;;;1.40;97.30;;;;;;5010795;28;20213;-88
2022/03/25 03:14:38;;;;;;;40.20;17.03;;;1.40;97.30;;;;;;5010825;28;20571;-89
2022/03/25 03:17:04;;;;;;;51.10;18.90;;;1.40;97.30;;;;;;5010892;28;20495;-87
2022/03/25 03:19:31;;;;;;;48.57;16.70;;;1.30;97.30;;;;;;5009933;28;20169;-87
2022/03/25 03:21:57;;;;;;;46.57;18.30;;;1.30;97.30;;;;;;5011934;28;20416;-89
2022/03/25 03:24:23;;;;;;;45.73;17.93;;;1.30;97.30;;;;;;5011875;28;20575;-88
2022/03/25 03:26:49;;;;;;;46.90;18.43;;;1.20;97.30;;;;;;5010187;28;20774;-89
2022/03/25 03:29:14;;;;;;;46.77;17.10;;;1.20;97.30;;;;;;5010650;28;20209;-89
2022/03/25 03:31:40;;;;;;;43.13;17.07;;;1.20;97.30;;;;;;5010041;28;20216;-87
2022/03/25 03:34:06;;;;;;;49.93;16.07;;;1.30;97.30;;;;;;5010767;28;20239;-88
2022/03/25 03:36:31;;;;;;;42.57;16.63;;;1.30;97.30;;;;;;5010166;28;20264;-87
2022/03/25 03:39:00;;;;;;;46.67;17.40;;;1.30;97.30;;;;;;5010438;28;20308;-84
2022/03/25 03:41:26;;;;;;;43.40;16.60;;;1.30;97.30;;;;;;5010320;28;20177;-89
2022/03/25 03:43:51;;;;;;;45.23;16.30;;;1.30;97.30;;;;;;5009896;28;20432;-87
2022/03/25 03:46:17;;;;;;;48.17;17.97;;;1.30;97.30;;;;;;5010457;28;20427;-88
2022/03/25 03:48:43;;;;;;;45.33;19.90;;;1.20;97.30;;;;;;5012031;28;20660;-89
2022/03/25 03:51:08;;;;;;;41.63;17.37;;;1.20;97.30;;;;;;5024157;28;20192;-88
2022/03/25 03:53:34;;;;;;;45.87;17.40;;;1.10;97.30;;;;;;5036837;28;20832;-88
2022/03/25 03:55:59;;;;;;;47.60;17.37;;;1.10;97.30;;;;;;5030168;28;20195;-88
2022/03/25 03:58:25;;;;;;;71.30;21.73;;;1.00;97.30;;;;;;5030030;28;20263;-88
2022/03/25 04:00:50;;;;;;;53.90;19.90;;;1.00;97.30;;;;;;5029874;28;20276;-89
2022/03/25 04:03:16;;;;;;;54.03;19.80;;;1.00;97.30;;;;;;5029303;28;20177;-89
2022/03/25 04:05:43;;;;;;;51.90;18.33;;;0.90;97.30;;;;;;5029495;28;20277;-87
2022/03/25 04:08:09;;;;;;;49.63;19.30;;;0.90;97.30;;;;;;5030176;28;20191;-89
2022/03/25 04:10:35;;;;;;;54.77;19.10;;;0.90;97.30;;;;;;5024129;28;20538;-88
2022/03/25 04:13:01;;;;;;;47.03;18.90;;;0.80;97.30;;;;;;5006732;28;20228;-88
2022/03/25 04:15:27;;;;;;;51.60;17.70;;;0.80;97.30;;;;;;5007672;28;20447;-89
2022/03/25 04:17:52;;;;;;;51.87;17.97;;;0.80;97.30;;;;;;5009531;28;20185;-88
2022/03/25 04:20:18;;;;;;;50.90;19.73;;;0.80;97.30;;;;;;5009274;28;20189;-88
2022/03/25 04:22:45;;;;;;;49.60;17.77;;;0.80;97.30;;;;;;5020258;28;20168;-87
2022/03/25 04:25:13;;;;;;;52.20;19.60;;;0.80;97.30;;;;;;5028621;28;20196;-88
2022/03/25 04:27:53;;;;;;;40.27;17.27;;;0.80;97.30;;;;;;5028959;28;20423;-88
2022/03/25 04:30:25;;;;;;;44.20;17.53;;;0.80;97.30;;;;;;5026328;28;21005;-88
2022/03/25 04:32:51;;;;;;;43.50;17.17;;;0.80;97.30;;;;;;5011927;28;20835;-87
2022/03/25 04:35:17;;;;;;;49.03;16.60;;;0.80;97.30;;;;;;5011767;28;20435;-87
2022/03/25 04:37:43;;;;;;;42.67;16.97;;;0.80;97.30;;;;;;5012060;28;20412;-87
2022/03/25 04:40:10;;;;;;;46.57;17.47;;;;;;;;;;5011948;28;20427;-88
2022/03/25 04:42:36;;;;;;;43.80;17.17;;;0.80;97.30;;;;;;5011845;28;20177;-87
2022/03/25 04:45:01;;;;;;;48.67;18.00;;;0.70;97.30;;;;;;5011531;28;20435;-83
2022/03/25 04:47:27;;;;;;;52.53;19.57;;;0.70;97.30;;;;;;5011483;28;20184;-86
2022/03/25 04:49:52;;;;;;;46.80;18.87;;;0.70;97.30;;;;;;5011787;28;20184;-87
2022/03/25 04:52:17;;;;;;;50.47;18.37;;;0.60;97.30;;;;;;5026747;28;20195;-87
2022/03/25 04:54:43;;;;;;;48.27;18.70;;;0.60;97.30;;;;;;5032889;28;20617;-88
2022/03/25 04:57:09;;;;;;;48.73;16.93;;;0.60;97.30;;;;;;5031526;28;20199;-88
2022/03/25 04:59:34;;;;;;;46.10;16.70;;;0.60;97.30;;;;;;5031290;28;20596;-87
2022/03/25 05:02:00;;;;;;;50.93;18.53;;;0.60;97.30;;;;;;5024948;28;20560;-86
2022/03/25 05:04:28;;;;;;;50.60;21.30;;;0.50;97.30;;;;;;5011262;28;20307;-86
2022/03/25 05:06:54;;;;;;;48.33;17.27;;;0.50;97.30;;;;;;5008904;28;20428;-88
2022/03/25 05:09:19;;;;;;;54.57;18.63;;;0.50;97.30;;;;;;5002954;28;21140;-86
2022/03/25 05:11:45;;;;;;;49.60;20.40;;;0.50;97.30;;;;;;5002564;28;20251;-89
2022/03/25 05:14:11;;;;;;;47.80;19.50;;;0.50;97.30;;;;;;4994739;28;20209;-85
2022/03/25 05:16:38;;;;;;;54.40;21.57;;;0.50;97.30;;;;;;5008669;28;20576;-87
2022/03/25 05:19:03;;;;;;;51.93;20.60;;;0.50;97.30;;;;;;5003004;28;20173;-87
2022/03/25 05:21:29;;;;;;;51.47;16.70;;;0.50;97.30;;;;;;5000195;28;20420;-88
2022/03/25 05:23:54;;;;;;;44.50;17.30;;;0.50;97.30;;;;;;5007075;28;20250;-86
2022/03/25 05:26:20;;;;;;;51.97;18.37;;;0.50;97.30;;;;;;4996438;28;20492;-87
2022/03/25 05:28:46;;;;;;;46.20;16.97;;;0.50;97.30;;;;;;5003812;28;20260;-88
2022/03/25 05:31:12;;;;;;;45.00;17.43;;;0.40;97.30;;;;;;4999594;28;20232;-88
2022/03/25 05:33:37;;;;;;;49.97;17.20;;;0.50;97.30;;;;;;5003050;28;20927;-88
2022/03/25 05:36:03;;;;;;;44.57;17.03;;;0.60;97.30;;;;;;5001662;28;20209;-88
2022/03/25 05:38:30;;;;;;;44.07;16.20;;;0.60;97.30;;;;;;5004981;28;20181;-90
2022/03/25 05:40:56;;;;;;;49.57;18.70;;;0.60;97.30;;;;;;5002747;28;20458;-88
2022/03/25 05:43:21;;;;;;;48.10;17.50;;;0.60;97.30;;;;;;4997670;28;20519;-89
2022/03/25 05:45:47;;;;;;;52.00;18.90;;;0.60;97.30;;;;;;4995542;28;20503;-87
2022/03/25 05:48:13;;;;;;;50.30;18.40;;;0.70;97.30;;;;;;5014438;28;20193;-88
2022/03/25 05:50:40;;;;;;;51.17;17.97;;;0.70;97.30;;;;;;5000259;28;20508;-88
2022/03/25 05:53:06;;;;;;;49.60;17.90;;;0.60;97.30;;;;;;5008548;28;20653;-89
2022/03/25 05:55:32;;;;;;;57.23;19.53;;;0.60;97.30;;;;;;5002729;28;20455;-88
2022/03/25 05:57:58;;;;;;;58.23;20.40;;;0.60;97.30;;;;;;5005400;28;20180;-88
2022/03/25 06:00:24;;;;;;;52.77;20.17;;;0.70;97.30;;;;;;4999596;28;20725;-87
2022/03/25 06:02:50;;;;;;;70.00;22.50;;;0.70;97.30;;;;;;5028260;28;20541;-87
2022/03/25 06:05:15;;;;;;;53.50;19.17;;;0.80;97.30;;;;;;5028005;28;20236;-88
2022/03/25 06:07:43;;;;;;;54.20;20.53;;;0.80;97.30;;;;;;5027544;28;20423;-89
2022/03/25 06:10:10;;;;;;;50.27;19.27;;;0.90;97.30;;;;;;5026575;28;20184;-87
2022/03/25 06:12:37;;;;;;;55.83;20.20;;;1.00;97.30;;;;;;5026636;28;20426;-88
2022/03/25 06:15:03;;;;;;;55.27;21.00;;;1.10;97.30;;;;;;5026413;28;20861;-88
2022/03/25 06:17:29;;;;;;;58.70;21.00;;;1.20;97.30;;;;;;5027700;28;20423;-89
2022/03/25 06:19:55;;;;;;;58.13;21.63;;;1.30;97.30;;;;;;5026601;28;20929;-87
2022/03/25 06:22:23;;;;;;;52.90;21.27;;;1.30;97.30;;;;;;5019696;28;20185;-88
2022/03/25 06:24:51;;;;;;;56.70;22.20;;;1.40;97.30;;;;;;5008873;28;20220;-88
2022/03/25 06:27:16;;;;;;;59.67;20.67;;;1.60;97.30;;;;;;5008549;28;20783;-89
2022/03/25 06:29:41;;;;;;;51.00;21.97;;;1.70;97.30;;;;;;5008691;28;20534;-88
2022/03/25 06:32:10;;;;;;;66.27;23.03;;;1.80;97.30;;;;;;5008351;28;20228;-88
2022/03/25 06:34:35;;;;;;;56.07;20.70;;;1.90;97.30;;;;;;5008234;28;20205;-87
2022/03/25 06:37:02;;;;;;;51.20;19.63;;;2.10;97.30;;;;;;5008160;28;20432;-88
2022/03/25 06:39:29;;;;;;;73.80;23.87;;;2.20;97.30;;;;;;5008425;28;20181;-88
2022/03/25 06:41:54;;;;;;;64.13;22.70;;;2.30;97.30;;;;;;5008309;28;20424;-90
2022/03/25 06:44:20;;;;;;;59.40;23.70;;;2.50;97.30;;;;;;5007932;28;21041;-88
2022/03/25 06:46:46;;;;;;;61.73;24.60;;;2.60;97.30;;;;;;5008504;28;20191;-88
2022/03/25 06:49:11;;;;;;;64.23;24.40;;;2.80;97.30;;;;;;5008513;28;20204;-88
2022/03/25 06:51:37;;;;;;;74.37;26.57;;;3.00;97.30;;;;;;5009379;28;20232;-88
2022/03/25 06:54:03;;;;;;;68.87;23.80;;;3.10;97.30;;;;;;5008701;28;20182;-88
2022/03/25 06:56:32;;;;;;;68.87;24.30;;;3.30;97.30;;;;;;5012012;28;20656;-90
2022/03/25 06:58:58;;;;;;;63.20;24.17;;;3.50;97.30;;;;;;5011521;28;20438;-88
2022/03/25 07:01:25;;;;;;;65.17;25.47;;;3.70;97.30;;;;;;5011655;28;20428;-88
2022/03/25 07:03:51;;;;;;;56.93;21.67;;;3.90;97.30;;;;;;5011160;28;20181;-89
2022/03/25 07:06:22;;;;;;;64.53;24.20;;;4.00;97.30;;;;;;5014646;28;20474;-87
2022/03/25 07:08:54;;;;;;;59.17;23.07;;;4.20;97.30;;;;;;5011335;28;20170;-88
2022/03/25 07:11:21;;;;;;;59.50;22.40;;;4.40;97.30;;;;;;5010930;28;20463;-88
2022/03/25 07:13:46;;;;;;;57.57;21.63;;;4.50;97.30;;;;;;5010932;28;20416;-86
2022/03/25 07:16:12;;;;;;;62.40;24.80;;;4.70;97.30;;;;;;5011362;28;20416;-88
2022/03/25 07:18:37;;;;;;;59.83;22.97;;;4.90;97.30;;;;;;5010880;28;20205;-89
2022/03/25 07:21:04;;;;;;;51.57;22.23;;;5.10;97.30;;;;;;5010438;28;20177;-88
2022/03/25 07:23:30;;;;;;;58.23;23.47;;;5.30;97.30;;;;;;5026542;28;20172;-89
2022/03/25 07:25:55;;;;;;;54.60;22.30;;;5.40;97.30;;;;;;5030567;28;20484;-88
2022/03/25 07:28:21;;;;;;;65.50;24.43;;;5.60;97.30;;;;;;5032019;28;20415;-88
2022/03/25 07:30:46;;;;;;;65.00;23.90;;;5.70;97.30;;;;;;5032019;28;20540;-88
2022/03/25 07:33:12;;;;;;;63.93;23.97;;;5.90;97.30;;;;;;5030364;28;20179;-88
2022/03/25 07:35:38;;;;;;;61.60;25.10;;;6.10;97.30;;;;;;5030329;28;20682;-88
2022/03/25 07:38:06;;;;;;;83.27;26.20;;;6.20;97.30;;;;;;5030387;28;20192;-88
2022/03/25 07:40:32;;;;;;;61.90;24.80;;;6.40;97.00;;;;;;5016542;28;20239;-88
2022/03/25 07:42:58;;;;;;;61.20;24.93;;;6.50;96.60;;;;;;5010848;28;20427;-87
2022/03/25 07:45:24;;;;;;;65.23;24.77;;;6.60;96.70;;;;;;5011142;28;20455;-88
2022/03/25 07:47:50;;;;;;;66.73;26.53;;;6.70;96.80;;;;;;5011969;28;20541;-88
2022/03/25 07:50:23;;;;;;;69.03;27.30;;;6.90;96.50;;;;;;5011614;28;20632;-88
2022/03/25 07:52:51;;;;;;;63.80;27.07;;;7.10;96.30;;;;;;5011042;28;20455;-89
2022/03/25 07:55:18;;;;;;;63.53;25.00;;;7.20;96.00;;;;;;5011305;28;20435;-90
2022/03/25 07:57:44;;;;;;;65.20;26.87;;;7.40;95.40;;;;;;5010304;28;20427;-88
2022/03/25 08:00:13;;;;;;;62.40;26.07;;;7.60;95.30;;;;;;5010448;28;20526;-88
2022/03/25 08:02:45;;;;;;;61.70;26.50;;;7.70;94.30;;;;;;5010051;28;21304;-90
2022/03/25 08:05:11;;;;;;;63.10;26.37;;;7.80;93.50;;;;;;5009670;28;20480;-90
2022/03/25 08:07:55;;;;;;;63.17;24.60;;;7.90;93.40;;;;;;5009770;28;20435;-89
2022/03/25 08:10:28;;;;;;;62.33;25.83;;;7.90;93.50;;;;;;5011564;28;20409;-88
2022/03/25 08:12:56;;;;;;;68.13;27.00;;;8.00;93.80;;;;;;5009584;28;20471;-88
2022/03/25 08:15:23;;;;;;;67.10;27.60;;;8.20;94.00;;;;;;5010127;28;20440;-88
2022/03/25 08:17:58;;;;;;;64.93;25.70;;;8.30;93.90;;;;;;5009884;28;20475;-88
2022/03/25 08:20:28;;;;;;;76.77;27.03;;;8.40;94.00;;;;;;5009697;28;20712;-89
2022/03/25 08:22:56;;;;;;;71.03;26.30;;;8.60;93.90;;;;;;5022058;28;20504;-88
2022/03/25 08:28:06;;;;;;;62.67;23.93;;;9.00;93.20;;;;;;5031510;28;20422;-87
2022/03/25 08:30:32;;;;;;;58.70;23.60;;;9.20;92.50;;;;;;5029069;28;20463;-86
2022/03/25 08:33:01;;;;;;;57.20;24.00;;;9.30;92.20;;;;;;5030650;28;20495;-88
2022/03/25 08:35:27;;;;;;;52.70;21.70;;;9.50;91.50;;;;;;5029247;28;20431;-89
2022/03/25 08:37:54;;;;;;;52.97;20.77;;;9.70;91.20;;;;;;5029583;28;20451;-88
2022/03/25 08:40:24;;;;;;;46.47;21.00;;;9.80;90.70;;;;;;5029191;28;20834;-86
2022/03/25 08:42:49;;;;;;;52.10;21.37;;;9.90;89.80;;;;;;5029974;28;20455;-87
2022/03/25 08:45:16;;;;;;;53.90;21.93;;;10.10;89.10;;;;;;5030402;28;20988;-86
2022/03/25 08:47:43;;;;;;;57.33;22.10;;;10.20;88.90;;;;;;5029679;28;20181;-88
2022/03/25 08:50:12;;;;;;;48.10;21.27;;;10.30;88.50;;;;;;5029234;28;20415;-88
2022/03/25 08:52:41;;;;;;;59.73;21.00;;;10.40;87.80;;;;;;5029241;28;20843;-89
2022/03/25 08:55:08;;;;;;;47.30;19.80;;;10.60;87.60;;;;;;5030233;28;20463;-88
2022/03/25 08:57:34;;;;;;;50.53;21.07;;;10.70;86.60;;;;;;5029455;28;20598;-88
2022/03/25 08:59:59;;;;;;;52.53;21.43;;;10.80;87.30;;;;;;5029028;28;20423;-88
2022/03/25 09:02:25;;;;;;;50.43;19.23;;;10.90;87.20;;;;;;5029322;28;20374;-87
2022/03/25 09:04:51;;;;;;;50.10;22.07;;;11.00;87.00;;;;;;5028576;28;20370;-86
2022/03/25 09:07:16;;;;;;;46.63;20.40;;;11.10;86.40;;;;;;5028996;28;21035;-88
2022/03/25 09:09:42;;;;;;;49.73;20.27;;;11.20;85.60;;;;;;5030193;28;20415;-85
2022/03/25 09:12:08;;;;;;;54.00;25.00;;;11.20;85.10;;;;;;5030155;28;20212;-88
2022/03/25 09:14:34;;;;;;;58.80;23.37;;;11.40;85.40;;;;;;5013936;28;20599;-88
2022/03/25 09:17:00;;;;;;;54.17;21.60;;;11.60;86.60;;;;;;5009087;28;20424;-86
2022/03/25 09:19:26;;;;;;;52.57;22.40;;;11.80;85.40;;;;;;5009343;28;20404;-88
2022/03/25 09:21:52;;;;;;;48.70;23.00;;;12.00;85.10;;;;;;5009619;28;20196;-87
2022/03/25 09:24:20;;;;;;;49.67;22.77;;;12.10;84.80;;;;;;5008509;28;20243;-88
2022/03/25 09:26:45;;;;;;;45.97;21.50;;;12.30;84.50;;;;;;5008964;28;20506;-87
2022/03/25 09:29:11;;;;;;;49.00;20.50;;;12.50;83.60;;;;;;5008618;28;20960;-86
2022/03/25 09:31:39;;;;;;;54.50;22.80;;;12.60;82.80;;;;;;5008884;28;20235;-86
2022/03/25 09:36:48;;;;;;;51.60;21.80;;;13.00;82.00;;;;;;5010483;28;20451;-88
2022/03/25 09:39:14;;;;;;;50.53;20.70;;;13.10;81.60;;;;;;5009114;28;20424;-86
2022/03/25 09:41:40;;;;;;;45.60;18.67;;;13.10;80.20;;;;;;5008906;28;20187;-85
2022/03/25 09:44:06;;;;;;;49.67;19.33;;;13.30;77.20;;;;;;5008721;28;20205;-85
2022/03/25 09:46:32;;;;;;;40.03;17.50;;;13.40;77.70;;;;;;5009667;28;20274;-88
2022/03/25 09:48:57;;;;;;;53.40;20.33;;;13.40;76.00;;;;;;5008449;28;20948;-88
2022/03/25 09:51:23;;;;;;;49.83;19.40;;;13.40;77.50;;;;;;5008623;28;20583;-87
2022/03/25 09:53:50;;;;;;;43.30;19.67;;;13.50;77.20;;;;;;5008375;28;20231;-88
2022/03/25 09:56:15;;;;;;;43.87;18.30;;;13.70;76.80;;;;;;5010153;28;20181;-84
2022/03/25 09:58:41;;;;;;;38.00;17.10;;;13.80;76.30;;;;;;5008390;28;20439;-85
2022/03/25 10:01:07;;;;;;;42.93;17.70;;;14.10;75.80;;;;;;5008495;28;20590;-86
2022/03/25 10:03:37;;;;;;;38.63;15.30;;;14.20;74.40;;;;;;5008504;28;20428;-87
2022/03/25 10:06:10;;;;;;;39.50;16.77;;;14.30;73.70;;;;;;5008673;28;20232;-88
2022/03/25 10:08:38;;;;;;;33.97;15.57;;;14.40;74.30;;;;;;5008559;28;20419;-88
2022/03/25 10:11:27;;;;;;;39.30;16.87;;;14.60;73.40;;;;;;5008710;28;20468;-86
2022/03/25 10:14:23;;;;;;;41.30;17.47;;;14.60;72.70;;;;;;5008422;28;20413;-88
2022/03/25 10:16:53;;;;;;;36.50;15.37;;;14.60;74.30;;;;;;5008476;28;20474;-88
2022/03/25 10:19:21;;;;;;;36.73;17.00;;;14.60;74.10;;;;;;5008262;28;20423;-88
2022/03/25 10:21:54;;;;;;;31.90;14.97;;;14.70;74.40;;;;;;5007811;28;20945;-88
2022/03/25 10:24:38;;;;;;;35.37;15.57;;;14.90;73.60;;;;;;5007679;28;20436;-87
2022/03/25 10:27:07;;;;;;;35.13;14.57;;;15.00;73.00;;;;;;5007780;28;20954;-88
2022/03/25 10:29:35;;;;;;;38.47;15.60;;;15.00;73.50;;;;;;5011093;28;20438;-88
2022/03/25 10:32:05;;;;;;;37.70;15.20;;;15.10;74.60;;;;;;5011881;28;20910;-84
2022/03/25 10:34:31;;;;;;;34.93;14.80;;;15.30;72.80;;;;;;5012182;28;20440;-86
2022/03/25 10:37:01;;;;;;;35.93;14.13;;;15.50;71.90;;;;;;5012037;28;20450;-89
2022/03/25 10:39:28;;;;;;;27.90;13.63;;;15.60;71.60;;;;;;5012015;28;20508;-87
2022/03/25 10:41:58;;;;;;;38.20;14.83;;;15.50;71.00;;;;;;5011656;28;20423;-87
2022/03/25 10:44:40;;;;;;;35.87;13.87;;;15.60;72.00;;;;;;5011422;28;20436;-87
2022/03/25 10:47:14;;;;;;;27.77;14.00;;;15.60;71.30;;;;;;5012080;28;20427;-87
2022/03/25 10:49:43;;;;;;;32.10;15.23;;;15.60;72.80;;;;;;5012919;28;20415;-88
2022/03/25 10:52:22;;;;;;;28.90;12.63;;;15.70;73.00;;;;;;5011557;28;20558;-88
2022/03/25 10:54:48;;;;;;;30.30;14.07;;;15.80;72.40;;;;;;5011064;28;20505;-88
2022/03/25 10:57:16;;;;;;;37.57;14.10;;;15.90;71.70;;;;;;5011742;28;20456;-88
2022/03/25 10:59:42;;;;;;;32.10;14.00;;;16.00;72.00;;;;;;5011640;28;20508;-88
2022/03/25 11:02:08;;;;;;;33.33;15.17;;;16.20;73.80;;;;;;5012182;28;20482;-86
2022/03/25 11:04:35;;;;;;;34.73;14.30;;;16.30;72.60;;;;;;5011822;28;20291;-88
2022/03/25 11:07:01;;;;;;;43.10;17.63;;;16.40;74.20;;;;;;5013160;28;20415;-85
2022/03/25 11:09:27;;;;;;;33.93;15.60;;;16.50;72.80;;;;;;5012035;28;20420;-89
2022/03/25 11:11:55;;;;;;;41.80;17.10;;;16.60;72.70;;;;;;5013006;28;21033;-87
2022/03/25 11:14:21;;;;;;;40.70;16.47;;;16.70;72.30;;;;;;5024760;28;21005;-87
2022/03/25 11:16:59;;;;;;;39.20;14.73;;;16.80;72.60;;;;;;5030877;28;21025;-88
2022/03/25 11:19:26;;;;;;;39.63;15.50;;;16.90;71.60;;;;;;5030240;28;20820;-86
2022/03/25 11:21:54;;;;;;;31.93;14.03;;;16.90;71.30;;;;;;5031704;28;20419;-87
2022/03/25 11:24:25;;;;;;;30.43;14.40;;;17.00;71.80;;;;;;5030158;28;20477;-88
2022/03/25 11:26:52;;;;;;;34.30;12.93;;;17.10;71.00;;;;;;5030769;28;20934;-88
2022/03/25 11:29:22;;;;;;;38.77;17.23;;;17.20;72.20;;;;;;5030268;28;20430;-85
2022/03/25 11:32:11;;;;;;;37.67;16.83;;;17.40;70.60;;;;;;5029871;28;20474;-88
2022/03/25 11:35:07;;;;;;;32.53;14.90;;;17.40;71.00;;;;;;5020462;28;20440;-88
2022/03/25 11:37:34;;;;;;;37.30;16.90;;;17.50;71.60;;;;;;5004200;28;20511;-88
2022/03/25 11:40:22;;;;;;;44.53;16.20;;;17.40;70.00;;;;;;5007404;28;20451;-88
2022/03/25 11:42:56;;;;;;;35.93;17.10;;;17.50;71.00;;;;;;5009772;28;20915;-88
2022/03/25 11:45:21;;;;;;;34.20;15.03;;;17.70;70.60;;;;;;5009355;28;20471;-88
2022/03/25 11:47:59;;;;;;;39.60;16.50;;;17.80;70.60;;;;;;5009307;28;20915;-87
2022/03/25 11:50:45;;;;;;;37.10;16.77;;;18.00;71.10;;;;;;5009562;28;20841;-89
2022/03/25 11:53:10;;;;;;;35.07;15.77;;;18.00;70.20;;;;;;5010356;28;20412;-88
2022/03/25 11:55:59;;;;;;;33.67;15.13;;;18.00;68.60;;;;;;5009688;28;20520;-88
2022/03/25 11:58:26;;;;;;;40.03;17.33;;;18.00;70.20;;;;;;5010666;28;20231;-88
2022/03/25 12:01:13;;;;;;;37.17;17.00;;;18.10;69.60;;;;;;5010085;28;20438;-89
2022/03/25 12:03:43;;;;;;;33.93;16.27;;;18.20;69.40;;;;;;5010037;28;20543;-88
2022/03/25 12:06:11;;;;;;;35.03;17.87;;;18.00;67.70;;;;;;5009675;28;20509;-90
2022/03/25 12:08:38;;;;;;;32.83;15.37;;;18.00;70.10;;;;;;5010409;28;20475;-87
2022/03/25 12:11:07;;;;;;;37.03;17.37;;;18.10;69.20;;;;;;5009611;28;21017;-88
2022/03/25 12:13:53;;;;;;;37.50;17.37;;;18.30;69.70;;;;;;5010076;28;20419;-88
2022/03/25 12:16:44;;;;;;;35.87;17.10;;;18.40;69.70;;;;;;5009629;28;20442;-87
2022/03/25 12:19:30;;;;;;;35.80;16.70;;;18.60;68.80;;;;;;5009691;28;20451;-85
2022/03/25 12:22:17;;;;;;;42.50;17.10;;;18.70;68.00;;;;;;5014147;28;20996;-88
2022/03/25 12:24:43;;;;;;;37.80;17.80;;;18.60;68.10;;;;;;5030710;28;20772;-88
2022/03/25 12:27:08;;;;;;;43.77;17.10;;;18.80;68.30;;;;;;5029585;28;20561;-88
2022/03/25 12:29:51;;;;;;;42.70;18.53;;;18.70;68.40;;;;;;5030734;28;20632;-88
2022/03/25 12:32:18;;;;;;;42.30;17.80;;;18.60;67.60;;;;;;5029770;28;20228;-88
2022/03/25 12:34:50;;;;;;;38.00;18.10;;;18.60;67.80;;;;;;5029024;28;20985;-88
2022/03/25 12:37:27;;;;;;;42.90;19.03;;;18.80;68.80;;;;;;5029587;28;20428;-89
2022/03/25 12:39:53;;;;;;;40.20;17.93;;;19.00;68.30;;;;;;5029224;28;20410;-88
2022/03/25 12:42:18;;;;;;;45.97;19.67;;;19.20;69.20;;;;;;5029467;28;20415;-88